createdAt,value
2024-01-25T00:02:40.878Z,1017.02
2024-01-25T00:05:40.971Z,1017.01
2024-01-25T00:08:40.872Z,1016.93
2024-01-25T00:11:40.864Z,1016.99
2024-01-25T00:14:40.864Z,1016.97
2024-01-25T00:17:40.914Z,1016.9
2024-01-25T00:20:40.866Z,1016.89
2024-01-25T00:23:40.848Z,1016.85
2024-01-25T00:26:40.872Z,1016.85
2024-01-25T00:29:40.868Z,1016.85
2024-01-25T00:32:40.905Z,1016.91
2024-01-25T00:35:41.000Z,1016.88
2024-01-25T00:38:40.862Z,1016.89
2024-01-25T00:41:40.848Z,1016.86
2024-01-25T00:44:40.853Z,1016.82
2024-01-25T00:47:40.874Z,1016.77
2024-01-25T00:50:40.894Z,1016.83
2024-01-25T00:53:40.843Z,1016.87
2024-01-25T00:56:40.843Z,1016.9
2024-01-25T00:59:40.863Z,1016.97
2024-01-25T01:02:40.876Z,1016.98
2024-01-25T01:05:41.157Z,1017.06
2024-01-25T01:08:40.990Z,1017.06
2024-01-25T01:11:40.845Z,1017.07
2024-01-25T01:14:40.833Z,1017.14
2024-01-25T01:17:40.911Z,1017.15
2024-01-25T01:20:40.888Z,1017.11
2024-01-25T01:23:40.872Z,1017.16
2024-01-25T01:26:40.868Z,1017.12
2024-01-25T01:29:40.885Z,1017.17
2024-01-25T01:32:40.942Z,1017.15
2024-01-25T01:35:40.899Z,1017.12
2024-01-25T01:38:40.851Z,1017.16
2024-01-25T01:41:40.858Z,1017.15
2024-01-25T01:47:40.987Z,1017.07
2024-01-25T01:50:40.952Z,1017.08
2024-01-25T01:53:40.849Z,1017.08
2024-01-25T01:56:40.881Z,1017.12
2024-01-25T01:59:40.849Z,1017.13
2024-01-25T02:02:40.851Z,1017.18
2024-01-25T02:05:40.850Z,1017.21
2024-01-25T02:08:40.846Z,1017.11
2024-01-25T02:11:40.843Z,1017.22
2024-01-25T02:14:40.847Z,1017.34
2024-01-25T02:17:40.874Z,1017.13
2024-01-25T02:20:40.836Z,1017.1
2024-01-25T02:23:40.905Z,1017.1
2024-01-25T02:26:40.840Z,1017.07
2024-01-25T02:29:40.837Z,1017.17
2024-01-25T02:32:40.875Z,1017.19
2024-01-25T02:35:40.837Z,1017.2
2024-01-25T02:38:40.825Z,1017.26
2024-01-25T02:41:40.824Z,1017.29
2024-01-25T02:47:40.984Z,1017.14
2024-01-25T02:50:40.821Z,1017.2
2024-01-25T02:53:40.829Z,1017.3
2024-01-25T02:56:40.817Z,1017.31
2024-01-25T02:59:40.843Z,1017.3
2024-01-25T03:02:40.818Z,1017.32
2024-01-25T03:05:40.864Z,1017.31
2024-01-25T03:08:40.816Z,1017.33
2024-01-25T03:11:40.817Z,1017.3
2024-01-25T03:17:40.834Z,1017.46
2024-01-25T03:20:40.815Z,1017.44
2024-01-25T03:23:40.816Z,1017.46
2024-01-25T03:26:40.805Z,1017.49
2024-01-25T03:29:40.816Z,1017.59
2024-01-25T03:32:40.835Z,1017.62
2024-01-25T03:35:40.819Z,1017.73
2024-01-25T03:38:40.793Z,1017.72
2024-01-25T03:41:40.797Z,1017.73
2024-01-25T03:44:40.804Z,1017.81
2024-01-25T03:47:40.898Z,1017.84
2024-01-25T03:50:40.961Z,1017.9
2024-01-25T03:53:40.813Z,1017.88
2024-01-25T03:56:40.805Z,1017.93
2024-01-25T03:59:40.798Z,1017.96
2024-01-25T04:02:40.782Z,1017.92
2024-01-25T04:05:40.832Z,1017.86
2024-01-25T04:08:40.795Z,1017.89
2024-01-25T04:11:40.790Z,1017.8
2024-01-25T04:14:40.787Z,1017.82
2024-01-25T04:17:40.834Z,1017.84
2024-01-25T04:20:40.903Z,1017.82
2024-01-25T04:23:40.774Z,1017.83
2024-01-25T04:26:40.775Z,1017.91
2024-01-25T04:29:40.771Z,1017.87
2024-01-25T04:32:40.819Z,1017.89
2024-01-25T04:35:40.834Z,1017.93
2024-01-25T04:38:40.759Z,1017.88
2024-01-25T04:41:40.772Z,1017.92
2024-01-25T04:44:40.755Z,1018
2024-01-25T04:47:40.805Z,1017.98
2024-01-25T04:50:40.908Z,1017.99
2024-01-25T04:53:40.759Z,1017.97
2024-01-25T04:56:40.774Z,1018.04
2024-01-25T04:59:40.783Z,1018.16
2024-01-25T05:02:40.762Z,1018.24
2024-01-25T05:05:40.752Z,1018.37
2024-01-25T05:08:40.882Z,1018.46
2024-01-25T05:11:40.783Z,1018.45
2024-01-25T05:14:40.752Z,1018.51
2024-01-25T05:17:40.777Z,1018.56
2024-01-25T05:20:40.762Z,1018.54
2024-01-25T05:23:40.740Z,1018.58
2024-01-25T05:26:40.747Z,1018.61
2024-01-25T05:29:40.766Z,1018.53
2024-01-25T05:32:40.797Z,1018.51
2024-01-25T05:35:40.876Z,1018.5
2024-01-25T05:38:40.730Z,1018.51
2024-01-25T05:41:40.728Z,1018.52
2024-01-25T05:47:40.996Z,1018.68
2024-01-25T05:50:40.730Z,1018.74
2024-01-25T05:53:40.725Z,1018.76
2024-01-25T05:56:40.730Z,1018.77
2024-01-25T05:59:40.736Z,1018.73
2024-01-25T06:02:40.740Z,1018.72
2024-01-25T06:05:40.763Z,1018.72
2024-01-25T06:08:40.999Z,1018.69
2024-01-25T06:11:40.756Z,1018.73
2024-01-25T06:14:40.744Z,1018.79
2024-01-25T06:17:40.770Z,1018.79
2024-01-25T06:20:40.735Z,1018.81
2024-01-25T06:23:40.765Z,1018.79
2024-01-25T06:26:40.755Z,1018.75
2024-01-25T06:29:40.755Z,1018.66
2024-01-25T06:32:40.753Z,1018.55
2024-01-25T06:35:40.773Z,1018.55
2024-01-25T06:38:40.766Z,1018.53
2024-01-25T06:41:40.729Z,1018.58
2024-01-25T06:44:40.804Z,1018.67
2024-01-25T06:47:40.830Z,1018.76
2024-01-25T06:50:40.846Z,1018.79
2024-01-25T06:53:40.788Z,1018.77
2024-01-25T06:56:40.763Z,1018.82
2024-01-25T06:59:40.760Z,1018.78
2024-01-25T07:02:40.797Z,1018.81
2024-01-25T07:05:40.765Z,1018.84
2024-01-25T07:08:40.769Z,1018.89
2024-01-25T07:11:40.769Z,1018.97
2024-01-25T07:17:40.804Z,1019.05
2024-01-25T07:20:40.915Z,1019.07
2024-01-25T07:23:40.768Z,1019.12
2024-01-25T07:26:40.773Z,1019.1
2024-01-25T07:29:40.757Z,1019.1
2024-01-25T07:32:40.783Z,1019.07
2024-01-25T07:35:40.787Z,1019.06
2024-01-25T07:38:40.762Z,1019.04
2024-01-25T07:41:40.754Z,1019.02
2024-01-25T07:47:40.800Z,1019.09
2024-01-25T07:50:40.923Z,1019.24
2024-01-25T07:53:40.754Z,1019.35
2024-01-25T07:56:40.746Z,1019.34
2024-01-25T07:59:40.743Z,1019.39
2024-01-25T08:02:40.759Z,1019.42
2024-01-25T08:05:44.792Z,1019.39
2024-01-25T08:08:40.748Z,1019.39
2024-01-25T08:11:40.756Z,1019.39
2024-01-25T08:17:40.795Z,1019.54
2024-01-25T08:20:40.922Z,1019.58
2024-01-25T08:23:40.740Z,1019.61
2024-01-25T08:26:40.743Z,1019.51
2024-01-25T08:29:40.748Z,1019.4
2024-01-25T08:32:40.776Z,1019.28
2024-01-25T08:35:40.802Z,1019.24
2024-01-25T08:38:40.734Z,1019.31
2024-01-25T08:41:41.916Z,1019.39
2024-01-25T08:44:40.733Z,1019.48
2024-01-25T08:47:40.876Z,1019.54
2024-01-25T08:50:40.916Z,1019.55
2024-01-25T08:53:40.737Z,1019.6
2024-01-25T08:56:40.742Z,1019.55
2024-01-25T08:59:40.737Z,1019.57
2024-01-25T09:02:40.735Z,1019.57
2024-01-25T09:05:40.848Z,1019.61
2024-01-25T09:08:40.786Z,1019.68
2024-01-25T09:11:40.733Z,1019.69
2024-01-25T09:17:40.876Z,1019.68
2024-01-25T09:20:40.805Z,1019.68
2024-01-25T09:23:40.711Z,1019.69
2024-01-25T09:26:40.721Z,1019.68
2024-01-25T09:29:40.727Z,1019.65
2024-01-25T09:32:40.794Z,1019.59
2024-01-25T09:35:40.919Z,1019.65
2024-01-25T09:38:40.709Z,1019.68
2024-01-25T09:41:40.877Z,1019.73
2024-01-25T09:44:40.729Z,1019.76
2024-01-25T09:47:40.758Z,1019.79
2024-01-25T09:50:40.823Z,1019.8
2024-01-25T09:53:40.696Z,1019.8
2024-01-25T09:56:40.701Z,1019.8
2024-01-25T09:59:40.718Z,1019.82
2024-01-25T10:02:40.799Z,1019.86
2024-01-25T10:05:40.818Z,1019.89
2024-01-25T10:08:40.708Z,1019.94
2024-01-25T10:11:42.892Z,1019.89
2024-01-25T10:14:40.695Z,1019.86
2024-01-25T10:17:51.753Z,1019.77
2024-01-25T10:20:40.782Z,1019.74
2024-01-25T10:23:40.755Z,1019.76
2024-01-25T10:26:40.697Z,1019.81
2024-01-25T10:29:40.717Z,1019.83
2024-01-25T10:32:40.738Z,1019.79
2024-01-25T10:35:41.068Z,1019.77
2024-01-25T10:38:40.701Z,1019.78
2024-01-25T10:41:40.681Z,1019.78
2024-01-25T10:44:40.692Z,1019.79
2024-01-25T10:47:40.785Z,1019.8
2024-01-25T10:50:40.777Z,1019.91
2024-01-25T10:53:40.704Z,1020
2024-01-25T10:56:40.703Z,1019.97
2024-01-25T10:59:40.690Z,1020.01
2024-01-25T11:02:40.839Z,1019.99
2024-01-25T11:05:40.809Z,1019.95
2024-01-25T11:08:40.724Z,1019.88
2024-01-25T11:11:40.706Z,1019.78
2024-01-25T11:14:40.706Z,1019.72
2024-01-25T11:17:40.724Z,1019.63
2024-01-25T11:20:40.769Z,1019.75
2024-01-25T11:23:40.719Z,1019.88
2024-01-25T11:26:40.708Z,1019.9
2024-01-25T11:29:42.260Z,1019.89
2024-01-25T11:32:40.726Z,1019.82
2024-01-25T11:35:40.840Z,1019.82
2024-01-25T11:38:40.717Z,1019.74
2024-01-25T11:41:40.720Z,1019.67
2024-01-25T11:47:40.729Z,1019.51
2024-01-25T11:50:40.859Z,1019.48
2024-01-25T11:53:40.708Z,1019.44
2024-01-25T11:56:40.709Z,1019.43
2024-01-25T11:59:40.724Z,1019.37
2024-01-25T12:02:40.708Z,1019.35
2024-01-25T12:05:40.798Z,1019.28
2024-01-25T12:08:40.720Z,1019.26
2024-01-25T12:11:40.713Z,1019.18
2024-01-25T12:17:40.728Z,1019.21
2024-01-25T12:20:40.752Z,1019.11
2024-01-25T12:23:40.738Z,1019.05
2024-01-25T12:26:40.697Z,1019.08
2024-01-25T12:29:40.680Z,1019.04
2024-01-25T12:32:40.729Z,1018.99
2024-01-25T12:35:40.816Z,1018.94
2024-01-25T12:38:40.687Z,1018.91
2024-01-25T12:41:40.721Z,1018.89
2024-01-25T12:47:40.717Z,1018.88
2024-01-25T12:50:40.671Z,1018.89
2024-01-25T12:53:40.686Z,1018.84
2024-01-25T12:56:40.708Z,1018.78
2024-01-25T12:59:40.678Z,1018.63
2024-01-25T13:02:40.678Z,1018.56
2024-01-25T13:05:40.717Z,1018.57
2024-01-25T13:08:40.683Z,1018.56
2024-01-25T13:11:40.684Z,1018.55
2024-01-25T13:17:40.729Z,1018.58
2024-01-25T13:20:40.681Z,1018.57
2024-01-25T13:23:40.812Z,1018.5
2024-01-25T13:26:40.687Z,1018.45
2024-01-25T13:29:40.700Z,1018.39
2024-01-25T13:32:40.733Z,1018.3
2024-01-25T13:35:40.678Z,1018.2
2024-01-25T13:38:40.716Z,1018.12
2024-01-25T13:41:40.675Z,1018.1
2024-01-25T13:44:40.713Z,1018.22
2024-01-25T13:47:40.705Z,1018.22
2024-01-25T13:50:40.672Z,1018.27
2024-01-25T13:53:40.679Z,1018.17
2024-01-25T13:56:40.671Z,1018.06
2024-01-25T13:59:40.675Z,1018
2024-01-25T14:02:40.712Z,1017.99
2024-01-25T14:05:40.726Z,1018.03
2024-01-25T14:08:40.682Z,1018.09
2024-01-25T14:11:40.670Z,1018.14
2024-01-25T14:14:40.682Z,1018.12
2024-01-25T14:17:40.682Z,1018.15
2024-01-25T14:20:40.664Z,1018.19
2024-01-25T14:23:40.669Z,1018.08
2024-01-25T14:26:40.674Z,1018.06
2024-01-25T14:29:40.679Z,1018.04
2024-01-25T14:32:40.737Z,1017.96
2024-01-25T14:35:40.667Z,1017.9
2024-01-25T14:38:40.666Z,1017.95
2024-01-25T14:41:40.683Z,1017.94
2024-01-25T14:44:40.659Z,1017.93
2024-01-25T14:47:40.690Z,1018.06
2024-01-25T14:50:40.664Z,1018.13
2024-01-25T14:53:40.669Z,1018.08
2024-01-25T14:56:40.667Z,1018.01
2024-01-25T14:59:40.665Z,1017.95
2024-01-25T15:02:40.664Z,1017.93
2024-01-25T15:05:40.704Z,1017.99
2024-01-25T15:08:40.661Z,1017.96
2024-01-25T15:11:40.664Z,1017.9
2024-01-25T15:14:40.671Z,1017.85
2024-01-25T15:17:40.817Z,1017.79
2024-01-25T15:20:40.710Z,1017.76
2024-01-25T15:23:40.736Z,1017.69
2024-01-25T15:26:40.700Z,1017.61
2024-01-25T15:29:40.703Z,1017.5
2024-01-25T15:32:40.979Z,1017.57
2024-01-25T15:35:40.704Z,1017.53
2024-01-25T15:38:40.703Z,1017.59
2024-01-25T15:41:40.684Z,1017.69
2024-01-25T15:44:40.664Z,1017.75
2024-01-25T15:47:40.713Z,1017.58
2024-01-25T15:50:40.734Z,1017.56
2024-01-25T15:53:40.663Z,1017.65
2024-01-25T15:56:40.680Z,1017.68
2024-01-25T15:59:40.669Z,1017.73
2024-01-25T16:02:40.663Z,1017.67
2024-01-25T16:05:40.673Z,1017.62
2024-01-25T16:08:40.660Z,1017.63
2024-01-25T16:11:40.658Z,1017.62
2024-01-25T16:17:40.658Z,1017.6
2024-01-25T16:20:40.643Z,1017.59
2024-01-25T16:23:40.655Z,1017.54
2024-01-25T16:26:40.665Z,1017.45
2024-01-25T16:29:40.656Z,1017.37
2024-01-25T16:32:40.696Z,1017.35
2024-01-25T16:35:40.661Z,1017.35
2024-01-25T16:38:40.648Z,1017.28
2024-01-25T16:41:40.651Z,1017.23
2024-01-25T16:47:40.706Z,1017.21
2024-01-25T16:50:40.703Z,1017.23
2024-01-25T16:53:40.641Z,1017.14
2024-01-25T16:56:40.645Z,1017.15
2024-01-25T16:59:40.642Z,1017.22
2024-01-25T17:02:40.642Z,1017.23
2024-01-25T17:05:40.653Z,1017.24
2024-01-25T17:08:40.682Z,1017.28
2024-01-25T17:11:40.630Z,1017.29
2024-01-25T17:17:40.632Z,1017.25
2024-01-25T17:20:40.622Z,1017.18
2024-01-25T17:23:40.636Z,1017.18
2024-01-25T17:26:40.636Z,1017.18
2024-01-25T17:29:40.659Z,1017.17
2024-01-25T17:32:40.656Z,1017.13
2024-01-25T17:35:40.637Z,1017.13
2024-01-25T17:38:40.633Z,1017.11
2024-01-25T17:41:40.629Z,1017.05
2024-01-25T17:44:40.629Z,1017.07
2024-01-25T17:47:40.663Z,1017.05
2024-01-25T17:50:40.620Z,1017.02
2024-01-25T17:53:40.636Z,1017.02
2024-01-25T17:56:40.626Z,1017.05
2024-01-25T17:59:40.632Z,1016.99
2024-01-25T18:02:40.627Z,1016.98
2024-01-25T18:05:40.728Z,1016.91
2024-01-25T18:08:40.627Z,1016.94
2024-01-25T18:11:40.624Z,1016.85
2024-01-25T18:17:40.641Z,1016.92
2024-01-25T18:20:40.617Z,1016.9
2024-01-25T18:23:40.618Z,1016.86
2024-01-25T18:26:40.614Z,1016.89
2024-01-25T18:29:40.618Z,1016.89
2024-01-25T18:32:40.649Z,1016.83
2024-01-25T18:35:40.616Z,1016.89
2024-01-25T18:38:40.656Z,1016.85
2024-01-25T18:41:40.613Z,1016.81
2024-01-25T18:44:40.604Z,1016.83
2024-01-25T18:47:40.629Z,1016.85
2024-01-25T18:50:40.605Z,1016.85
2024-01-25T18:53:40.614Z,1016.92
2024-01-25T18:56:40.601Z,1016.92
2024-01-25T18:59:40.605Z,1016.92
2024-01-25T19:02:40.611Z,1016.9
2024-01-25T19:05:40.655Z,1016.87
2024-01-25T19:08:40.616Z,1016.93
2024-01-25T19:11:40.597Z,1016.95
2024-01-25T19:14:40.600Z,1016.94
2024-01-25T19:17:40.618Z,1016.92
2024-01-25T19:20:40.591Z,1016.84
2024-01-25T19:23:40.597Z,1016.82
2024-01-25T19:26:40.595Z,1016.73
2024-01-25T19:29:40.588Z,1016.73
2024-01-25T19:32:40.618Z,1016.74
2024-01-25T19:35:41.909Z,1016.65
2024-01-25T19:38:40.599Z,1016.72
2024-01-25T19:41:40.595Z,1016.78
2024-01-25T19:47:40.659Z,1016.75
2024-01-25T19:50:40.606Z,1016.83
2024-01-25T19:53:40.591Z,1016.92
2024-01-25T19:56:40.600Z,1017.08
2024-01-25T19:59:40.595Z,1017.09
2024-01-25T20:02:40.588Z,1017.09
2024-01-25T20:05:40.591Z,1017.03
2024-01-25T20:08:40.600Z,1016.95
2024-01-25T20:11:40.579Z,1017.01
2024-01-25T20:17:40.617Z,1016.99
2024-01-25T20:20:45.666Z,1016.97
2024-01-25T20:23:40.584Z,1017
2024-01-25T20:26:40.585Z,1016.98
2024-01-25T20:29:40.588Z,1016.97
2024-01-25T20:32:40.603Z,1016.91
2024-01-25T20:35:40.584Z,1016.9
2024-01-25T20:38:40.583Z,1016.92
2024-01-25T20:41:40.574Z,1016.83
2024-01-25T20:44:40.570Z,1016.81
2024-01-25T20:47:40.632Z,1016.78
2024-01-25T20:50:40.575Z,1016.79
2024-01-25T20:53:43.793Z,1016.69
2024-01-25T20:56:40.569Z,1016.61
2024-01-25T20:59:40.563Z,1016.56
2024-01-25T21:02:40.590Z,1016.51
2024-01-25T21:05:40.615Z,1016.45
2024-01-25T21:08:40.571Z,1016.46
2024-01-25T21:11:40.574Z,1016.49
2024-01-25T21:17:40.591Z,1016.43
2024-01-25T21:20:40.569Z,1016.43
2024-01-25T21:23:40.560Z,1016.38
2024-01-25T21:26:40.572Z,1016.37
2024-01-25T21:29:40.580Z,1016.35
2024-01-25T21:32:40.572Z,1016.38
2024-01-25T21:35:40.568Z,1016.32
2024-01-25T21:38:40.544Z,1016.34
2024-01-25T21:41:40.567Z,1016.33
2024-01-25T21:47:40.568Z,1016.41
2024-01-25T21:50:40.570Z,1016.39
2024-01-25T21:53:40.544Z,1016.37
2024-01-25T21:56:40.609Z,1016.43
2024-01-25T21:59:40.533Z,1016.52
2024-01-25T22:02:40.833Z,1016.52
2024-01-25T22:05:40.605Z,1016.49
2024-01-25T22:08:40.542Z,1016.49
2024-01-25T22:11:40.537Z,1016.51
2024-01-25T22:17:40.595Z,1016.59
2024-01-25T22:20:40.532Z,1016.56
2024-01-25T22:23:40.545Z,1016.5
2024-01-25T22:26:40.539Z,1016.52
2024-01-25T22:29:40.527Z,1016.49
2024-01-25T22:32:40.557Z,1016.49
2024-01-25T22:35:40.530Z,1016.5
2024-01-25T22:38:40.539Z,1016.45
2024-01-25T22:41:40.524Z,1016.4
2024-01-25T22:44:40.537Z,1016.45
2024-01-25T22:47:40.564Z,1016.41
2024-01-25T22:50:40.540Z,1016.39
2024-01-25T22:53:40.540Z,1016.36
2024-01-25T22:56:40.525Z,1016.3
2024-01-25T22:59:40.523Z,1016.34
2024-01-25T23:02:40.528Z,1016.29
2024-01-25T23:05:40.637Z,1016.28
2024-01-25T23:08:40.542Z,1016.35
2024-01-25T23:11:40.540Z,1016.37
2024-01-25T23:14:40.520Z,1016.37
2024-01-25T23:17:40.550Z,1016.27
2024-01-25T23:20:40.523Z,1016.32
2024-01-25T23:23:40.524Z,1016.29
2024-01-25T23:26:40.526Z,1016.28
2024-01-25T23:29:40.535Z,1016.22
2024-01-25T23:32:40.634Z,1016.19
2024-01-25T23:35:40.530Z,1016.21
2024-01-25T23:38:40.527Z,1016.23
2024-01-25T23:41:40.534Z,1016.29
2024-01-25T23:44:40.528Z,1016.26
2024-01-25T23:47:40.546Z,1016.23
2024-01-25T23:50:41.078Z,1016.26
2024-01-25T23:53:40.569Z,1016.24
2024-01-25T23:56:40.548Z,1016.11
2024-01-25T23:59:40.544Z,1016.1
